Time;durP1;ratioP1;P1;durP2;ratioP2;P2;SDS_P1;SDS_P2;PMS_P1;PMS_P2;Temp;Humidity;BMP_temperature;BMP_pressure;BME280_temperature;BME280_humidity;BME280_pressure;Samples;Min_cycle;Max_cycle;Signal;HPM_P1;HPM_P2
2021/09/24 00:00:54;;;;;;;10.18;6.28;;;;;;;;;;5024630;28;20022;-55
2021/09/24 00:03:19;;;;;;;8.88;6.05;;;;;;;;;;5012832;28;20033;-56
2021/09/24 00:05:44;;;;;;;9.70;5.78;;;;;;;;;;4994893;28;20022;-56
2021/09/24 00:08:09;;;;;;;9.43;5.78;;;;;;;;;;5012915;28;20358;-56
2021/09/24 00:10:34;;;;;;;8.43;6.50;;;;;;;;;;5017108;28;20034;-56
2021/09/24 00:13:00;;;;;;;10.00;6.22;;;;;;;;;;5032490;28;20104;-56
2021/09/24 00:15:25;;;;;;;12.13;6.40;;;;;;;;;;5027225;28;20507;-56
2021/09/24 00:17:50;;;;;;;10.13;6.50;;;;;;;;;;4994698;28;20480;-56
2021/09/24 00:20:15;;;;;;;10.90;6.90;;;;;;;;;;4992944;28;20457;-56
2021/09/24 00:22:41;;;;;;;9.77;5.88;;;;;;;;;;4992965;28;20133;-54
2021/09/24 00:25:06;;;;;;;10.45;6.43;;;;;;;;;;4992862;28;20034;-55
2021/09/24 00:27:31;;;;;;;10.50;7.43;;;;;;;;;;4993321;28;20481;-56
2021/09/24 00:29:56;;;;;;;10.93;7.15;;;;;;;;;;4993097;28;20093;-55
2021/09/24 00:32:22;;;;;;;10.60;6.18;;;;;;;;;;4992671;28;20031;-55
2021/09/24 00:34:48;;;;;;;11.77;7.43;;;;;;;;;;4993090;28;20141;-56
2021/09/24 00:37:13;;;;;;;12.13;6.82;;;;;;;;;;4992536;28;20034;-54
2021/09/24 00:39:38;;;;;;;10.55;6.82;;;;;;;;;;4991678;28;20025;-56
2021/09/24 00:42:03;;;;;;;10.23;6.15;;;;;;;;;;4992881;28;20035;-56
2021/09/24 00:44:29;;;;;;;10.65;6.40;;;;;;;;;;4993753;28;20018;-56
2021/09/24 00:46:55;;;;;;;10.95;6.45;;;;;;;;;;4994828;28;20093;-55
2021/09/24 00:49:20;;;;;;;10.63;5.82;;;;;;;;;;4996734;28;20370;-56
2021/09/24 00:51:45;;;;;;;18.02;7.38;;;;;;;;;;4996042;28;20385;-56
2021/09/24 00:54:10;;;;;;;12.48;6.75;;;;;;;;;;4996556;28;20027;-55
2021/09/24 00:56:36;;;;;;;10.45;6.53;;;;;;;;;;4996157;28;20034;-55
2021/09/24 00:59:01;;;;;;;9.85;6.32;;;;;;;;;;4996464;28;20025;-55
2021/09/24 01:01:27;;;;;;;10.10;7.32;;;;;;;;;;4995986;28;20034;-56
2021/09/24 01:03:52;;;;;;;12.75;7.15;;;;;;;;;;4994973;28;20031;-55
2021/09/24 01:06:17;;;;;;;11.90;7.03;;;;;;;;;;4995860;28;20035;-55
2021/09/24 01:08:42;;;;;;;12.10;7.63;;;;;;;;;;4997306;28;20032;-55
2021/09/24 01:11:08;;;;;;;15.02;7.20;;;;;;;;;;4995801;28;20037;-55
2021/09/24 01:13:33;;;;;;;12.77;7.70;;;;;;;;;;4996309;28;20113;-55
2021/09/24 01:15:58;;;;;;;12.93;7.78;;;;;;;;;;4995729;28;20105;-56
2021/09/24 01:18:25;;;;;;;11.95;6.75;;;;;;;;;;4995862;28;20025;-55
2021/09/24 01:20:51;;;;;;;10.77;7.10;;;;;;;;;;4995819;28;20030;-55
2021/09/24 01:23:16;;;;;;;12.63;6.68;;;;;;;;;;4994531;28;20097;-55
2021/09/24 01:25:41;;;;;;;12.07;7.18;;;;;;;;;;4995724;28;20030;-55
2021/09/24 01:28:07;;;;;;;13.00;7.47;;;;;;;;;;4994610;28;20383;-55
2021/09/24 01:30:32;;;;;;;9.75;6.80;;;;;;;;;;4995400;28;20258;-55
2021/09/24 01:32:57;;;;;;;10.07;6.80;;;;;;;;;;4995838;28;20488;-55
2021/09/24 01:35:22;;;;;;;12.35;7.20;;;;;;;;;;4995613;28;20479;-55
2021/09/24 01:37:48;;;;;;;10.65;7.20;;;;;;;;;;4995854;28;20042;-54
2021/09/24 01:40:14;;;;;;;15.38;7.55;;;;;;;;;;4995400;28;20037;-56
2021/09/24 01:42:39;;;;;;;10.90;6.97;;;;;;;;;;4995604;28;20440;-55
2021/09/24 01:45:04;;;;;;;11.20;7.28;;;;;;;;;;4995222;28;20026;-55
2021/09/24 01:47:30;;;;;;;13.77;7.40;;;;;;;;;;4995498;28;20068;-55
2021/09/24 01:49:55;;;;;;;10.27;7.50;;;;;;;;;;4994336;28;20035;-55
2021/09/24 01:52:20;;;;;;;11.75;6.70;;;;;;;;;;5004241;28;20030;-55
2021/09/24 01:54:45;;;;;;;8.23;6.38;;;;;;;;;;5014893;28;20025;-56
2021/09/24 01:57:11;;;;;;;15.70;6.72;;;;;;;;;;5013200;28;20048;-55
2021/09/24 01:59:37;;;;;;;11.57;7.65;;;;;;;;;;5014989;28;20388;-54
2021/09/24 02:02:02;;;;;;;17.05;7.20;;;;;;;;;;5013089;28;20029;-56
2021/09/24 02:04:27;;;;;;;13.45;7.47;;;;;;;;;;5014968;28;20026;-56
2021/09/24 02:06:53;;;;;;;13.32;7.28;;;;;;;;;;5014437;28;20534;-54
2021/09/24 02:09:18;;;;;;;12.93;7.35;;;;;;;;;;5014671;28;20499;-55
2021/09/24 02:11:43;;;;;;;17.80;6.80;;;;;;;;;;5014423;28;20504;-56
2021/09/24 02:14:08;;;;;;;12.63;7.22;;;;;;;;;;5014856;28;20435;-56
2021/09/24 02:16:34;;;;;;;12.43;7.60;;;;;;;;;;5014307;28;20557;-55
2021/09/24 02:18:59;;;;;;;17.70;7.65;;;;;;;;;;5013387;28;20052;-55
2021/09/24 02:21:24;;;;;;;13.02;8.18;;;;;;;;;;5014285;28;20120;-55
2021/09/24 02:23:49;;;;;;;13.40;8.77;;;;;;;;;;5014291;28;20044;-55
2021/09/24 02:26:15;;;;;;;14.45;8.07;;;;;;;;;;5011166;28;20060;-55
2021/09/24 02:28:42;;;;;;;15.18;7.82;;;;;;;;;;5014436;28;20032;-56
2021/09/24 02:31:10;;;;;;;14.48;7.68;;;;;;;;;;5013957;28;20026;-55
2021/09/24 02:33:36;;;;;;;9.82;6.85;;;;;;;;;;5014379;28;20425;-55
2021/09/24 02:36:02;;;;;;;15.15;7.47;;;;;;;;;;5013978;28;20041;-56
2021/09/24 02:38:27;;;;;;;17.92;8.82;;;;;;;;;;5014396;28;20033;-55
2021/09/24 02:40:52;;;;;;;13.38;8.30;;;;;;;;;;5013839;28;20033;-55
2021/09/24 02:43:17;;;;;;;13.27;8.15;;;;;;;;;;5014019;28;20030;-55
2021/09/24 02:45:42;;;;;;;12.80;8.18;;;;;;;;;;5012242;28;20034;-55
2021/09/24 02:48:08;;;;;;;14.05;8.32;;;;;;;;;;5013906;28;20030;-55
2021/09/24 02:50:33;;;;;;;11.65;7.97;;;;;;;;;;5013356;28;20045;-55
2021/09/24 02:52:58;;;;;;;14.75;8.07;;;;;;;;;;5013818;28;20444;-55
2021/09/24 02:55:23;;;;;;;19.50;7.47;;;;;;;;;;5013442;28;20042;-54
2021/09/24 02:57:49;;;;;;;12.68;8.10;;;;;;;;;;5013892;28;20461;-55
2021/09/24 03:00:14;;;;;;;13.93;8.38;;;;;;;;;;5013281;28;20121;-55
2021/09/24 03:02:39;;;;;;;15.90;9.07;;;;;;;;;;5013847;28;20101;-55
2021/09/24 03:05:05;;;;;;;14.45;8.50;;;;;;;;;;5013504;28;20049;-55
2021/09/24 03:07:30;;;;;;;14.65;8.73;;;;;;;;;;5013080;28;20109;-55
2021/09/24 03:09:55;;;;;;;12.55;8.25;;;;;;;;;;5013589;28;20088;-55
2021/09/24 03:12:20;;;;;;;12.98;7.75;;;;;;;;;;5008501;28;20117;-55
2021/09/24 03:14:46;;;;;;;15.85;9.55;;;;;;;;;;4993947;28;20026;-54
2021/09/24 03:17:11;;;;;;;16.70;9.95;;;;;;;;;;4993371;28;20057;-55
2021/09/24 03:19:36;;;;;;;17.33;9.75;;;;;;;;;;4993952;28;20026;-55
2021/09/24 03:22:01;;;;;;;16.27;9.90;;;;;;;;;;4993213;28;20764;-55
2021/09/24 03:24:26;;;;;;;14.30;9.15;;;;;;;;;;4993807;28;20034;-55
2021/09/24 03:26:52;;;;;;;17.17;9.55;;;;;;;;;;4993285;28;20117;-55
2021/09/24 03:29:17;;;;;;;16.30;9.70;;;;;;;;;;4993709;28;20125;-55
2021/09/24 03:31:42;;;;;;;17.58;9.93;;;;;;;;;;4993237;28;20050;-55
2021/09/24 03:34:07;;;;;;;13.18;9.73;;;;;;;;;;4993888;28;20105;-55
2021/09/24 03:36:33;;;;;;;19.00;10.48;;;;;;;;;;4993238;28;20396;-54
2021/09/24 03:38:58;;;;;;;18.80;9.68;;;;;;;;;;4993642;28;20465;-55
2021/09/24 03:41:23;;;;;;;15.25;10.07;;;;;;;;;;4993139;28;20481;-55
2021/09/24 03:43:49;;;;;;;17.20;10.65;;;;;;;;;;4993627;28;20026;-55
2021/09/24 03:46:14;;;;;;;17.55;10.63;;;;;;;;;;4992995;28;20117;-55
2021/09/24 03:48:39;;;;;;;18.10;11.30;;;;;;;;;;4993392;28;20041;-54
2021/09/24 03:51:04;;;;;;;17.05;9.88;;;;;;;;;;4992974;28;20034;-55
2021/09/24 03:53:30;;;;;;;17.88;10.50;;;;;;;;;;4993434;28;20030;-55
2021/09/24 03:55:55;;;;;;;20.40;10.18;;;;;;;;;;4991904;28;20031;-56
2021/09/24 03:58:20;;;;;;;18.90;10.82;;;;;;;;;;4992718;28;20077;-56
2021/09/24 04:00:46;;;;;;;14.88;9.65;;;;;;;;;;4993364;28;20026;-56
2021/09/24 04:03:11;;;;;;;15.45;9.77;;;;;;;;;;4993810;28;20489;-56
2021/09/24 04:05:36;;;;;;;21.10;11.27;;;;;;;;;;4993147;28;20035;-55
2021/09/24 04:08:01;;;;;;;17.27;11.07;;;;;;;;;;4993291;28;20073;-56
2021/09/24 04:10:27;;;;;;;23.00;11.10;;;;;;;;;;4991626;28;20034;-56
2021/09/24 04:12:52;;;;;;;18.35;11.52;;;;;;;;;;4992188;28;20073;-56
2021/09/24 04:15:17;;;;;;;16.65;10.00;;;;;;;;;;4992708;28;20018;-55
2021/09/24 04:17:42;;;;;;;17.00;9.57;;;;;;;;;;4993094;28;20064;-55
2021/09/24 04:20:08;;;;;;;22.13;11.20;;;;;;;;;;4994970;28;20057;-56
2021/09/24 04:22:33;;;;;;;23.15;11.52;;;;;;;;;;5015717;28;20042;-55
2021/09/24 04:24:58;;;;;;;16.50;10.93;;;;;;;;;;5016690;28;20025;-56
2021/09/24 04:27:23;;;;;;;19.63;11.82;;;;;;;;;;4998791;28;20351;-56
2021/09/24 04:29:49;;;;;;;19.30;11.98;;;;;;;;;;5016486;28;20034;-56
2021/09/24 04:32:14;;;;;;;19.48;11.27;;;;;;;;;;5034366;28;20172;-55
2021/09/24 04:34:39;;;;;;;18.00;11.52;;;;;;;;;;5036252;28;20021;-56
2021/09/24 04:37:04;;;;;;;19.02;10.88;;;;;;;;;;5018915;28;20029;-56
2021/09/24 04:39:30;;;;;;;19.77;11.32;;;;;;;;;;5016722;28;20030;-56
2021/09/24 04:41:55;;;;;;;18.42;12.10;;;;;;;;;;5015941;28;20092;-55
2021/09/24 04:44:20;;;;;;;20.60;11.35;;;;;;;;;;5016251;28;20117;-56
2021/09/24 04:46:47;;;;;;;19.02;10.95;;;;;;;;;;5030076;28;20068;-56
2021/09/24 04:49:12;;;;;;;19.00;11.75;;;;;;;;;;5036214;28;20036;-56
2021/09/24 04:51:37;;;;;;;19.13;11.75;;;;;;;;;;5004755;28;20034;-56
2021/09/24 04:54:03;;;;;;;22.90;12.07;;;;;;;;;;5016260;28;20014;-56
2021/09/24 04:56:28;;;;;;;22.17;12.15;;;;;;;;;;5004023;28;20062;-56
2021/09/24 04:58:53;;;;;;;24.05;13.10;;;;;;;;;;4996607;28;20022;-56
2021/09/24 05:01:18;;;;;;;24.83;13.73;;;;;;;;;;4994830;28;20385;-55
2021/09/24 05:03:44;;;;;;;22.17;13.18;;;;;;;;;;4997060;28;20358;-56
2021/09/24 05:06:09;;;;;;;19.33;12.65;;;;;;;;;;4996183;28;20477;-56
2021/09/24 05:08:34;;;;;;;22.85;12.73;;;;;;;;;;4996490;28;20389;-57
2021/09/24 05:10:59;;;;;;;27.05;13.00;;;;;;;;;;4994634;28;20506;-55
2021/09/24 05:13:25;;;;;;;20.88;13.48;;;;;;;;;;5002301;28;20025;-56
2021/09/24 05:15:50;;;;;;;16.33;8.73;;;;;;;;;;5015343;28;20045;-56
2021/09/24 05:18:15;;;;;;;17.67;10.45;;;;;;;;;;5015728;28;20033;-54
2021/09/24 05:20:40;;;;;;;15.93;9.68;;;;;;;;;;5015724;28;20496;-55
2021/09/24 05:23:05;;;;;;;19.88;11.15;;;;;;;;;;5014402;28;20548;-56
2021/09/24 05:25:31;;;;;;;17.70;11.80;;;;;;;;;;5015551;28;20030;-56
2021/09/24 05:27:56;;;;;;;21.98;13.13;;;;;;;;;;5015848;28;20160;-56
2021/09/24 05:30:21;;;;;;;19.17;11.93;;;;;;;;;;5014864;28;20037;-55
2021/09/24 05:32:46;;;;;;;16.42;10.93;;;;;;;;;;5014464;28;20021;-55
2021/09/24 05:35:12;;;;;;;21.58;12.60;;;;;;;;;;5015232;28;20515;-56
2021/09/24 05:37:37;;;;;;;18.45;11.07;;;;;;;;;;5014515;28;20145;-56
2021/09/24 05:40:03;;;;;;;24.05;12.50;;;;;;;;;;5015096;28;20025;-55
2021/09/24 05:42:28;;;;;;;18.50;9.73;;;;;;;;;;5015562;28;20068;-56
2021/09/24 05:44:55;;;;;;;22.30;13.45;;;;;;;;;;5015600;28;20070;-54
2021/09/24 05:47:20;;;;;;;15.85;9.32;;;;;;;;;;5015047;28;20488;-55
2021/09/24 05:49:45;;;;;;;18.65;11.60;;;;;;;;;;5015381;28;20038;-56
2021/09/24 05:52:10;;;;;;;20.50;11.48;;;;;;;;;;5015047;28;20440;-55
2021/09/24 05:54:36;;;;;;;17.00;11.20;;;;;;;;;;5015394;28;20111;-56
2021/09/24 05:57:01;;;;;;;19.85;11.70;;;;;;;;;;5013739;28;20149;-56
2021/09/24 05:59:26;;;;;;;15.95;11.10;;;;;;;;;;5015206;28;20014;-56
2021/09/24 06:01:51;;;;;;;14.30;9.43;;;;;;;;;;5015009;28;20038;-55
2021/09/24 06:04:18;;;;;;;14.68;9.77;;;;;;;;;;5015192;28;20408;-55
2021/09/24 06:06:44;;;;;;;14.20;9.02;;;;;;;;;;5014645;28;20088;-58
2021/09/24 06:09:09;;;;;;;15.13;9.20;;;;;;;;;;5014946;28;20029;-56
2021/09/24 06:11:34;;;;;;;16.77;8.38;;;;;;;;;;5014573;28;20418;-55
2021/09/24 06:13:59;;;;;;;12.55;8.10;;;;;;;;;;5014842;28;20018;-56
2021/09/24 06:16:25;;;;;;;13.27;7.63;;;;;;;;;;5014286;28;20030;-55
2021/09/24 06:18:51;;;;;;;12.65;8.40;;;;;;;;;;5014633;28;20072;-56
2021/09/24 06:21:18;;;;;;;12.88;7.88;;;;;;;;;;5014649;28;20084;-55
2021/09/24 06:23:43;;;;;;;15.25;8.00;;;;;;;;;;5014582;28;20050;-56
2021/09/24 06:26:09;;;;;;;13.48;8.27;;;;;;;;;;5014278;28;20037;-56
2021/09/24 06:28:34;;;;;;;16.55;8.15;;;;;;;;;;5014553;28;20064;-55
2021/09/24 06:30:59;;;;;;;14.15;7.72;;;;;;;;;;5014025;28;20072;-55
2021/09/24 06:33:24;;;;;;;15.57;8.90;;;;;;;;;;5013313;28;20026;-56
2021/09/24 06:35:50;;;;;;;12.30;7.53;;;;;;;;;;5014273;28;20113;-56
2021/09/24 06:38:15;;;;;;;11.23;7.47;;;;;;;;;;5013296;28;20364;-56
2021/09/24 06:40:40;;;;;;;12.95;7.18;;;;;;;;;;5014114;28;20080;-56
2021/09/24 06:43:05;;;;;;;14.20;8.13;;;;;;;;;;5013469;28;20088;-56
2021/09/24 06:45:30;;;;;;;11.68;7.60;;;;;;;;;;5013901;28;20100;-56
2021/09/24 06:47:56;;;;;;;16.65;7.45;;;;;;;;;;5013107;28;20076;-56
2021/09/24 06:50:21;;;;;;;12.43;7.50;;;;;;;;;;5013896;28;20361;-56
2021/09/24 06:52:46;;;;;;;12.95;7.25;;;;;;;;;;5014330;28;20025;-56
2021/09/24 06:55:11;;;;;;;12.77;7.43;;;;;;;;;;5013694;28;20028;-57
2021/09/24 06:57:37;;;;;;;15.32;7.90;;;;;;;;;;5013361;28;20020;-56
2021/09/24 07:00:03;;;;;;;13.00;6.95;;;;;;;;;;5013518;28;20021;-57
2021/09/24 07:02:28;;;;;;;13.27;8.23;;;;;;;;;;5012622;28;20079;-57
2021/09/24 07:04:54;;;;;;;11.05;7.38;;;;;;;;;;5013826;28;20117;-57
2021/09/24 07:07:19;;;;;;;13.68;6.13;;;;;;;;;;5013613;28;20058;-56
2021/09/24 07:09:44;;;;;;;13.60;7.97;;;;;;;;;;5010662;28;20034;-57
2021/09/24 07:12:09;;;;;;;13.05;8.25;;;;;;;;;;5013646;28;20052;-57
2021/09/24 07:14:34;;;;;;;12.38;7.55;;;;;;;;;;5012676;28;20383;-56
2021/09/24 07:17:00;;;;;;;12.57;7.88;;;;;;;;;;5013478;28;20029;-56
2021/09/24 07:19:26;;;;;;;13.27;8.75;;;;;;;;;;5013661;28;20140;-56
2021/09/24 07:21:51;;;;;;;12.55;8.25;;;;;;;;;;5011778;28;20034;-56
2021/09/24 07:24:17;;;;;;;16.77;7.45;;;;;;;;;;5013682;28;20028;-56
2021/09/24 07:26:42;;;;;;;13.75;6.72;;;;;;;;;;5013272;28;20388;-57
2021/09/24 07:29:08;;;;;;;18.05;7.75;;;;;;;;;;5013405;28;20076;-56
2021/09/24 07:31:33;;;;;;;11.02;8.00;;;;;;;;;;5013194;28;20038;-57
2021/09/24 07:33:58;;;;;;;13.00;9.15;;;;;;;;;;5013774;28;20033;-57
2021/09/24 07:36:23;;;;;;;12.80;7.70;;;;;;;;;;5013181;28;20038;-58
2021/09/24 07:38:49;;;;;;;11.98;7.00;;;;;;;;;;5013530;28;20106;-55
2021/09/24 07:41:14;;;;;;;10.88;7.60;;;;;;;;;;5013096;28;20026;-57
2021/09/24 07:43:40;;;;;;;16.90;8.05;;;;;;;;;;5013459;28;20061;-56
2021/09/24 07:46:05;;;;;;;12.60;7.88;;;;;;;;;;5012936;28;20025;-55
2021/09/24 07:48:30;;;;;;;12.02;8.15;;;;;;;;;;5013266;28;20101;-54
2021/09/24 07:50:55;;;;;;;16.17;7.47;;;;;;;;;;5008846;28;20038;-56
2021/09/24 07:53:21;;;;;;;11.07;6.95;;;;;;;;;;5013046;28;20020;-56
2021/09/24 07:55:46;;;;;;;14.40;7.95;;;;;;;;;;5012652;28;20030;-56
2021/09/24 07:58:11;;;;;;;11.93;6.85;;;;;;;;;;5011943;28;20028;-56
2021/09/24 08:00:37;;;;;;;10.95;7.07;;;;;;;;;;5012861;28;20029;-57
2021/09/24 08:03:02;;;;;;;15.07;7.03;;;;;;;;;;5013024;28;20429;-57
2021/09/24 08:05:28;;;;;;;10.30;6.88;;;;;;;;;;5012848;28;20050;-56
2021/09/24 08:07:53;;;;;;;9.95;7.57;;;;;;;;;;5013034;28;20029;-56
2021/09/24 08:10:18;;;;;;;10.43;7.20;;;;;;;;;;5012477;28;20045;-57
2021/09/24 08:12:43;;;;;;;14.45;7.68;;;;;;;;;;5012898;28;20030;-56
2021/09/24 08:15:09;;;;;;;12.95;8.05;;;;;;;;;;5012320;28;20041;-56
2021/09/24 08:17:34;;;;;;;9.05;7.07;;;;;;;;;;5013021;28;20022;-56
2021/09/24 08:19:59;;;;;;;11.30;7.63;;;;;;;;;;5012851;28;20115;-56
2021/09/24 08:22:25;;;;;;;12.43;7.15;;;;;;;;;;5012252;28;20192;-56
2021/09/24 08:24:50;;;;;;;12.73;7.57;;;;;;;;;;5012928;28;20036;-56
2021/09/24 08:27:16;;;;;;;10.32;6.97;;;;;;;;;;5012165;28;20502;-56
2021/09/24 08:29:41;;;;;;;13.90;6.93;;;;;;;;;;5012743;28;20034;-56
2021/09/24 08:32:06;;;;;;;10.70;7.40;;;;;;;;;;5012295;28;20088;-56
2021/09/24 08:34:31;;;;;;;11.45;7.07;;;;;;;;;;5012732;28;20088;-55
2021/09/24 08:36:57;;;;;;;12.18;6.70;;;;;;;;;;5012428;28;20377;-56
2021/09/24 08:39:22;;;;;;;9.90;6.43;;;;;;;;;;5012678;28;20489;-55
2021/09/24 08:41:47;;;;;;;14.05;7.20;;;;;;;;;;5012188;28;20472;-56
2021/09/24 08:44:12;;;;;;;10.60;7.13;;;;;;;;;;5012470;28;20085;-55
2021/09/24 08:46:38;;;;;;;13.18;6.88;;;;;;;;;;5012096;28;20111;-56
2021/09/24 08:49:03;;;;;;;10.35;7.18;;;;;;;;;;5012753;28;20030;-56
2021/09/24 08:51:28;;;;;;;14.57;6.55;;;;;;;;;;5012171;28;20034;-56
2021/09/24 08:53:54;;;;;;;13.70;7.72;;;;;;;;;;5012603;28;20030;-56
2021/09/24 08:56:19;;;;;;;12.25;8.30;;;;;;;;;;5012026;28;20042;-56
2021/09/24 08:58:44;;;;;;;11.23;7.32;;;;;;;;;;5012369;28;20022;-57
2021/09/24 09:01:09;;;;;;;11.75;6.75;;;;;;;;;;5012188;28;20030;-56
2021/09/24 09:03:42;;;;;;;12.43;6.65;;;;;;;;;;5012577;28;20057;-56
2021/09/24 09:06:07;;;;;;;11.20;6.40;;;;;;;;;;5013513;28;20109;-56
2021/09/24 09:08:33;;;;;;;10.65;7.05;;;;;;;;;;5008241;28;20543;-56
2021/09/24 09:11:01;;;;;;;11.38;6.57;;;;;;;;;;4995733;28;20061;-56
2021/09/24 09:13:27;;;;;;;10.65;6.10;;;;;;;;;;4996265;28;20375;-57
2021/09/24 09:15:53;;;;;;;11.23;6.15;;;;;;;;;;4995774;28;20373;-56
2021/09/24 09:18:18;;;;;;;10.73;6.63;;;;;;;;;;4996271;28;20053;-55
2021/09/24 09:20:44;;;;;;;10.15;5.57;;;;;;;;;;4995828;28;20050;-56
2021/09/24 09:23:09;;;;;;;8.02;5.10;;;;;;;;;;4994744;28;20054;-56
2021/09/24 09:25:36;;;;;;;11.75;5.97;;;;;;;;;;4995456;28;20053;-56
2021/09/24 09:28:05;;;;;;;8.18;5.40;;;;;;;;;;5001563;28;20072;-56
2021/09/24 09:30:30;;;;;;;9.02;5.10;;;;;;;;;;5015199;28;20033;-56
2021/09/24 09:33:02;;;;;;;10.40;5.72;;;;;;;;;;5015489;28;20032;-56
2021/09/24 09:35:27;;;;;;;9.07;5.40;;;;;;;;;;5014966;28;20088;-56
2021/09/24 09:37:53;;;;;;;13.45;5.90;;;;;;;;;;5015479;28;20022;-56
2021/09/24 09:40:21;;;;;;;10.90;4.93;;;;;;;;;;5013631;28;20495;-56
2021/09/24 09:42:46;;;;;;;8.68;4.70;;;;;;;;;;5015362;28;20014;-56
2021/09/24 09:45:12;;;;;;;9.25;5.00;;;;;;;;;;5015153;28;20018;-57
2021/09/24 09:47:38;;;;;;;9.18;3.67;;;;;;;;;;5015357;28;20014;-57
2021/09/24 09:50:10;;;;;;;9.25;4.60;;;;;;;;;;5013787;28;20451;-56
2021/09/24 09:52:55;;;;;;;9.38;4.60;;;;;;;;;;5015250;28;20026;-56
2021/09/24 09:55:20;;;;;;;7.78;4.13;;;;;;;;;;5015073;28;20383;-55
2021/09/24 09:57:49;;;;;;;8.07;4.03;;;;;;;;;;5015504;28;20017;-57
2021/09/24 10:00:14;;;;;;;8.05;3.83;;;;;;;;;;5015012;28;20111;-58
2021/09/24 10:02:40;;;;;;;8.45;3.58;;;;;;;;;;5015195;28;20069;-56
2021/09/24 10:05:05;;;;;;;7.15;3.60;;;;;;;;;;5011351;28;20021;-57
2021/09/24 10:07:37;;;;;;;5.78;3.17;;;;;;;;;;5014903;28;20021;-57
2021/09/24 10:10:09;;;;;;;7.70;3.80;;;;;;;;;;5014619;28;20041;-57
2021/09/24 10:12:35;;;;;;;7.00;3.60;;;;;;;;;;5014966;28;20022;-56
2021/09/24 10:15:00;;;;;;;5.95;3.90;;;;;;;;;;5014799;28;20117;-55
2021/09/24 10:17:25;;;;;;;9.55;3.63;;;;;;;;;;5013073;28;20030;-56
2021/09/24 10:19:51;;;;;;;9.50;3.83;;;;;;;;;;5014584;28;20029;-56
2021/09/24 10:22:16;;;;;;;6.57;3.13;;;;;;;;;;5013931;28;20054;-55
2021/09/24 10:24:42;;;;;;;4.72;2.90;;;;;;;;;;5013197;28;20072;-56
2021/09/24 10:27:10;;;;;;;8.77;3.05;;;;;;;;;;5014296;28;20122;-55
2021/09/24 10:29:36;;;;;;;8.68;2.70;;;;;;;;;;5014371;28;20036;-56
2021/09/24 10:32:16;;;;;;;7.40;2.72;;;;;;;;;;5013993;28;20030;-56
2021/09/24 10:35:01;;;;;;;7.50;2.78;;;;;;;;;;5013255;28;20026;-56
2021/09/24 10:37:26;;;;;;;3.90;2.25;;;;;;;;;;5014485;28;20041;-56
2021/09/24 10:39:58;;;;;;;5.22;2.20;;;;;;;;;;5014340;28;20030;-57
2021/09/24 10:42:25;;;;;;;7.65;2.08;;;;;;;;;;5013725;28;20034;-56
2021/09/24 10:45:00;;;;;;;14.77;3.45;;;;;;;;;;5013989;28;20468;-57
2021/09/24 10:47:44;;;;;;;5.82;2.05;;;;;;;;;;5013533;28;20500;-57
2021/09/24 10:50:28;;;;;;;2.72;1.80;;;;;;;;;;5013305;28;20091;-57
2021/09/24 10:53:26;;;;;;;5.28;2.38;;;;;;;;;;5013852;28;20024;-57
2021/09/24 10:55:51;;;;;;;2.45;1.60;;;;;;;;;;5013802;28;20040;-57
2021/09/24 10:58:22;;;;;;;3.70;2.10;;;;;;;;;;5014076;28;20021;-56
2021/09/24 11:00:48;;;;;;;4.00;1.88;;;;;;;;;;5013624;28;20050;-56
2021/09/24 11:03:18;;;;;;;4.43;2.40;;;;;;;;;;5013911;28;20060;-57
2021/09/24 11:05:54;;;;;;;8.80;2.60;;;;;;;;;;5010072;28;20046;-55
2021/09/24 11:08:29;;;;;;;4.28;2.45;;;;;;;;;;4994172;28;20054;-56
2021/09/24 11:11:13;;;;;;;7.07;2.30;;;;;;;;;;4993853;28;20058;-56
2021/09/24 11:13:41;;;;;;;4.57;1.85;;;;;;;;;;4993805;28;20491;-56
2021/09/24 11:16:07;;;;;;;6.53;2.00;;;;;;;;;;4993558;28;20394;-56
2021/09/24 11:18:53;;;;;;;3.17;1.77;;;;;;;;;;4994053;28;20433;-56
2021/09/24 11:21:19;;;;;;;1.90;1.50;;;;;;;;;;4993362;28;20512;-56
2021/09/24 11:23:45;;;;;;;4.22;1.70;;;;;;;;;;4993499;28;20038;-56
2021/09/24 11:26:14;;;;;;;3.38;2.00;;;;;;;;;;4993528;28;20041;-56
2021/09/24 11:28:39;;;;;;;3.08;2.00;;;;;;;;;;4993124;28;20496;-56
2021/09/24 11:31:05;;;;;;;2.97;1.73;;;;;;;;;;4993429;28;20073;-56
2021/09/24 11:33:42;;;;;;;6.90;2.00;;;;;;;;;;4993804;28;20039;-58
2021/09/24 11:36:08;;;;;;;3.50;2.03;;;;;;;;;;4993166;28;20027;-58
2021/09/24 11:38:33;;;;;;;3.53;2.10;;;;;;;;;;4993589;28;20022;-57
2021/09/24 11:40:58;;;;;;;3.78;2.00;;;;;;;;;;4992841;28;20492;-58
2021/09/24 11:43:29;;;;;;;4.07;2.20;;;;;;;;;;4993379;28;20054;-58
2021/09/24 11:45:55;;;;;;;3.67;1.65;;;;;;;;;;4993577;28;20057;-57
2021/09/24 11:48:28;;;;;;;4.68;2.15;;;;;;;;;;4993892;28;20472;-58
2021/09/24 11:50:53;;;;;;;3.60;2.20;;;;;;;;;;4993116;28;20043;-58
2021/09/24 11:53:18;;;;;;;3.90;2.22;;;;;;;;;;4993236;28;20112;-57
2021/09/24 11:55:47;;;;;;;5.07;2.80;;;;;;;;;;4992728;28;20045;-59
2021/09/24 11:58:12;;;;;;;3.80;2.20;;;;;;;;;;4993276;28;20019;-58
2021/09/24 12:00:44;;;;;;;6.88;2.67;;;;;;;;;;4992856;28;20084;-58
2021/09/24 12:03:09;;;;;;;4.60;2.30;;;;;;;;;;5006167;28;20021;-56
2021/09/24 12:05:35;;;;;;;5.07;2.60;;;;;;;;;;5012552;28;20052;-58
2021/09/24 12:08:00;;;;;;;3.67;2.22;;;;;;;;;;5012845;28;20060;-58
2021/09/24 12:10:28;;;;;;;3.05;1.80;;;;;;;;;;5012303;28;20042;-57
2021/09/24 12:13:09;;;;;;;3.10;1.88;;;;;;;;;;5012673;28;20029;-56
2021/09/24 12:15:47;;;;;;;4.13;1.80;;;;;;;;;;5012301;28;20038;-55
2021/09/24 12:18:12;;;;;;;4.82;1.90;;;;;;;;;;5012732;28;20169;-58
2021/09/24 12:20:38;;;;;;;6.47;2.28;;;;;;;;;;5012171;28;20113;-58
2021/09/24 12:23:03;;;;;;;3.80;1.80;;;;;;;;;;4994776;28;20123;-57
2021/09/24 12:25:28;;;;;;;4.50;2.00;;;;;;;;;;5012400;28;20391;-56
2021/09/24 12:28:00;;;;;;;4.35;2.05;;;;;;;;;;5012741;28;20413;-57
2021/09/24 12:30:25;;;;;;;5.13;2.03;;;;;;;;;;5010881;28;20093;-58
2021/09/24 12:32:51;;;;;;;5.25;2.25;;;;;;;;;;5012638;28;20104;-57
2021/09/24 12:35:16;;;;;;;5.38;1.80;;;;;;;;;;5012245;28;20030;-57
2021/09/24 12:37:42;;;;;;;3.45;1.83;;;;;;;;;;5012951;28;20149;-58
2021/09/24 12:40:09;;;;;;;3.72;1.95;;;;;;;;;;5011377;28;20018;-56
2021/09/24 12:42:38;;;;;;;4.90;2.15;;;;;;;;;;5016570;28;20029;-56
2021/09/24 12:45:05;;;;;;;3.42;1.80;;;;;;;;;;5016238;28;20026;-57
2021/09/24 12:47:31;;;;;;;4.22;2.00;;;;;;;;;;5016504;28;20045;-56
2021/09/24 12:49:57;;;;;;;4.55;2.30;;;;;;;;;;5012558;28;20464;-58
2021/09/24 12:52:23;;;;;;;3.85;2.10;;;;;;;;;;5014272;28;20034;-58
2021/09/24 12:54:48;;;;;;;4.82;2.17;;;;;;;;;;5016376;28;20101;-56
2021/09/24 12:57:17;;;;;;;4.75;2.20;;;;;;;;;;5007026;28;20500;-58
2021/09/24 12:59:46;;;;;;;6.47;2.13;;;;;;;;;;4996609;28;20118;-57
2021/09/24 13:02:12;;;;;;;3.72;2.30;;;;;;;;;;4996091;28;20039;-55
2021/09/24 13:04:37;;;;;;;4.30;2.30;;;;;;;;;;4996663;28;20018;-56
2021/09/24 13:07:02;;;;;;;7.85;2.45;;;;;;;;;;4995929;28;20033;-56
2021/09/24 13:09:28;;;;;;;5.10;2.38;;;;;;;;;;4996360;28;20042;-56
2021/09/24 13:11:53;;;;;;;6.53;2.45;;;;;;;;;;4995969;28;20035;-56
2021/09/24 13:14:19;;;;;;;5.32;2.30;;;;;;;;;;4995126;28;20045;-56
2021/09/24 13:16:44;;;;;;;9.60;2.78;;;;;;;;;;4995704;28;20074;-56
2021/09/24 13:19:09;;;;;;;7.63;2.70;;;;;;;;;;4996256;28;20029;-56
2021/09/24 13:21:35;;;;;;;3.92;2.25;;;;;;;;;;4995667;28;20412;-57
2021/09/24 13:24:00;;;;;;;4.88;2.20;;;;;;;;;;4995985;28;20042;-58
2021/09/24 13:26:26;;;;;;;4.43;2.30;;;;;;;;;;4995768;28;20484;-56
2021/09/24 13:28:51;;;;;;;8.00;2.35;;;;;;;;;;4996103;28;20058;-58
2021/09/24 13:31:17;;;;;;;5.95;2.28;;;;;;;;;;4995619;28;20039;-58
2021/09/24 13:33:42;;;;;;;3.78;2.00;;;;;;;;;;4995953;28;20038;-56
2021/09/24 13:36:07;;;;;;;4.00;2.40;;;;;;;;;;4995505;28;20038;-57
2021/09/24 13:38:32;;;;;;;6.88;3.00;;;;;;;;;;4996071;28;20068;-57
2021/09/24 13:40:58;;;;;;;8.60;3.00;;;;;;;;;;4995674;28;20030;-57
2021/09/24 13:43:23;;;;;;;6.13;2.85;;;;;;;;;;4995899;28;20015;-56
2021/09/24 13:45:48;;;;;;;7.47;3.33;;;;;;;;;;4994104;28;20055;-56
2021/09/24 13:48:14;;;;;;;8.95;2.95;;;;;;;;;;4995687;28;20096;-57
2021/09/24 13:50:39;;;;;;;7.82;2.95;;;;;;;;;;4995368;28;20097;-57
2021/09/24 13:53:08;;;;;;;9.43;3.00;;;;;;;;;;4994081;28;20019;-56
2021/09/24 13:55:33;;;;;;;7.18;2.90;;;;;;;;;;4995206;28;20104;-57
2021/09/24 13:57:58;;;;;;;9.50;2.95;;;;;;;;;;4995486;28;20053;-57
2021/09/24 14:00:23;;;;;;;6.10;2.75;;;;;;;;;;4995164;28;20034;-57
2021/09/24 14:02:49;;;;;;;9.80;3.53;;;;;;;;;;4995439;28;20029;-57
2021/09/24 14:05:14;;;;;;;6.07;2.90;;;;;;;;;;4994932;28;20022;-59
2021/09/24 14:07:40;;;;;;;10.02;3.28;;;;;;;;;;4993372;28;20022;-57
2021/09/24 14:10:05;;;;;;;5.93;2.92;;;;;;;;;;4979975;28;20146;-57
2021/09/24 14:12:35;;;;;;;7.32;2.70;;;;;;;;;;4922093;28;20290;-58
2021/09/24 14:15:01;;;;;;;;;;;;;;;;;;4912532;28;20722;-55
2021/09/24 14:17:26;;;;;;;4.45;2.80;;;;;;;;;;4979645;28;20336;-58
2021/09/24 14:19:51;;;;;;;8.38;2.92;;;;;;;;;;4996009;28;20475;-57
2021/09/24 14:22:16;;;;;;;5.72;3.00;;;;;;;;;;5832808;23;20025;-57
2021/09/24 14:24:42;;;;;;;7.53;3.20;;;;;;;;;;4975809;28;20488;-57
2021/09/24 14:27:08;;;;;;;5.00;2.67;;;;;;;;;;4980391;28;20022;-57